Time,TemperatureF,DewpointF,PressureIn,WindDirection,WindDirectionDegrees,WindSpeedMPH,WindSpeedGustMPH,Humidity,HourlyPrecipIn,Conditions,Clouds,dailyrainin,SoftwareType,DateUTC
2013-01-18 07:18:00,17.8,17.3,30.29,WSW,247,3.2,-999.0,98,-99.99,,,0.00,Acu-Link.com,2013-01-18 12:18:00,
2013-01-18 07:34:00,18.0,17.5,30.29,WSW,247,0.0,-999.0,98,-99.99,,,0.00,Acu-Link.com,2013-01-18 12:34:00,
2013-01-18 07:52:00,18.0,17.5,30.29,West,270,2.2,-999.0,98,-99.99,,,0.00,Acu-Link.com,2013-01-18 12:52:00,
2013-01-18 08:09:00,18.0,17.5,30.30,SW,225,2.7,-999.0,98,-99.99,,,0.00,Acu-Link.com,2013-01-18 13:09:00,
2013-01-18 08:24:00,18.9,18.4,30.31,West,270,3.2,-999.0,98,-99.99,,,0.00,Acu-Link.com,2013-01-18 13:24:00,
2013-01-18 08:40:00,22.6,21.1,30.32,WNW,292,3.2,-999.0,94,-99.99,,,0.00,Acu-Link.com,2013-01-18 13:40:00,
2013-01-18 08:55:00,24.6,21.3,30.32,SW,225,2.7,-999.0,87,-99.99,,,0.00,Acu-Link.com,2013-01-18 13:55:00,
2013-01-18 09:10:00,25.9,20.9,30.33,West,270,3.7,-999.0,81,-99.99,,,0.00,Acu-Link.com,2013-01-18 14:10:00,
2013-01-18 09:27:00,27.0,21.4,30.34,NNW,337,3.2,-999.0,79,-99.99,,,0.00,Acu-Link.com,2013-01-18 14:27:00,
2013-01-18 09:53:00,27.7,21.4,30.34,West,270,4.2,-999.0,77,-99.99,,,0.00,Acu-Link.com,2013-01-18 14:53:00,
2013-01-18 11:40:00,31.5,21.1,30.31,SW,225,4.2,-999.0,65,-99.99,,,0.00,Acu-Link.com,2013-01-18 16:40:00,
2013-01-18 12:03:00,32.7,21.1,30.30,WNW,292,7.8,-999.0,62,-99.99,,,0.00,Acu-Link.com,2013-01-18 17:03:00,
2013-01-18 12:19:00,34.3,21.5,30.29,West,270,5.8,-999.0,59,-99.99,,,0.00,Acu-Link.com,2013-01-18 17:19:00,
2013-01-18 12:45:00,33.3,21.3,30.27,SW,225,4.2,-999.0,61,-99.99,,,0.00,Acu-Link.com,2013-01-18 17:45:00,
2013-01-18 13:00:00,34.2,21.8,30.27,ESE,112,2.7,-999.0,60,-99.99,,,0.00,Acu-Link.com,2013-01-18 18:00:00,
2013-01-18 14:59:00,35.6,24.6,30.21,NNW,337,5.8,-999.0,64,-99.99,,,0.00,Acu-Link.com,2013-01-18 19:59:00,
2013-01-18 15:20:00,35.6,24.6,30.19,ESE,112,6.3,-999.0,64,-99.99,,,0.00,Acu-Link.com,2013-01-18 20:20:00,
2013-01-18 15:35:00,35.2,23.9,30.19,West,270,4.7,-999.0,63,-99.99,,,0.00,Acu-Link.com,2013-01-18 20:35:00,
2013-01-18 15:52:00,34.9,24.0,30.19,SW,225,4.2,-999.0,64,-99.99,,,0.00,Acu-Link.com,2013-01-18 20:52:00,
2013-01-18 16:07:00,34.5,24.0,30.18,NNW,337,3.7,-999.0,65,-99.99,,,0.00,Acu-Link.com,2013-01-18 21:07:00,
2013-01-18 16:23:00,35.2,25.0,30.18,South,180,5.8,-999.0,66,-99.99,,,0.00,Acu-Link.com,2013-01-18 21:23:00,
2013-01-18 16:38:00,34.2,24.0,30.17,East,90,10.4,-999.0,66,-99.99,,,0.00,Acu-Link.com,2013-01-18 21:38:00,
2013-01-18 17:00:00,33.3,24.6,30.16,North,0,4.2,-999.0,70,-99.99,,,0.00,Acu-Link.com,2013-01-18 22:00:00,